Магнитогорск, Россия

24 10, 2014 18:41 YEKT (GMT +0600)
Magnitogorsk | Change Station
CLOSE
Current Station
Аэропорт
Location: MAGNITOGORSK,
Высота над уровнем моря: 1430 ft
Ближайшие Погодные Станции

В.н.у.м. 1430 ft 53.39 °N, 58.76 °E | Updated 11 minutes ago

Scattered Clouds
Переменная Облачность
14 °F
Ощущается Как -2 °F
С
16
Ветер переменчевый Ветер от Северный

Сегодня
Высокий -- | Низкий -- °F
--% Вероятн. осадков
Вчера
Высокий -- | Низкий -- °F
Precip. -- дюймов
8:46 AM 6:48 PM
Новолуние, 0% visible
Давление 29.80 дюймов
Видимость 6.2 милиь
Облачность Переменная Облачность 2600 ft
Температура с учетом ветра -2 °F
Точка Росы 1 °F
Влажность воздуха 57%
Дождь 0.00 дюймов
Глубина снега Нет в наличии.
УФ 0 из 12
Пыльца Нет в наличии.
Качество воздуха Нет в наличии.
Flu Activity Нет в наличии.
METAR USCM 241230Z 36007MPS 9999 SCT026CB M10/M17 Q1009 NOSIG 01090065 RMK QFE718

More Conditions Fewer Conditions

Давление 29.80 дюймов
Видимость 6.2 милиь
Облачность Переменная Облачность 2600 ft
Температура с учетом ветра -2 °F
Точка Росы 1 °F
Влажность воздуха 57%
Дождь 0.00 дюймов
Глубина снега Нет в наличии.
УФ 0 из 12
Пыльца Нет в наличии.
Качество воздуха Нет в наличии.
Flu Activity Нет в наличии.
METAR USCM 241230Z 36007MPS 9999 SCT026CB M10/M17 Q1009 NOSIG 01090065 RMK QFE718

More Conditions Fewer Conditions

10-Day Weather Forecast

Almanac

Астрономические явления

Oct. 24, 2014 Восход Закат
Настоящее время 8:46 AM YEKT 6:48 PM YEKT
Гражданские сумерки 8:10 AM YEKT 7:24 PM YEKT
Навигационные сумерки 7:29 AM YEKT 8:04 PM YEKT
Астрономические сумерки 6:49 AM YEKT 8:44 PM YEKT
Луна 9:02 AM YEKT 7:07 PM YEKT
Длительность светового времени 11h 13m
Продолжительность Дня
10h 01m
Tomorrow will be 3m 59s shorter.
Новолуние, 0% of the Moon is Illuminated
Сегодня
Новолуние
Окт 30
Первая четверть
Нояб 6
Полнолуние
Нояб 14
Четвертая четверть
Нояб 22
Новая

Вчерашние Экстремумы

Country Highs Country Lows

Community

WunderPhotos

Upload Photos

1,764,544 фотографии загружены!

Nearby

Качество воздуха

Not available.

Глубина Снега

Not available.

Сейсмическая активность

Город Distance Mag. Time & Date
No recent earthquake activity has been reported nearby.
Minimum magnitude displayed is 2.5.

Температура Прибрежных Вод

Место Температура
Нет зарегистрированных станций

Ближайшие Погодные Станции